Terminal Aerodrome Forecast
Issued by NWS

Home | Current Version | Previous Version | Text Only | Print | Product List | Glossary On
Versions: 1 2 3 4 5 6 7 8 9 10 11 12 13
000
FTUS45 KABQ 202300
TAFLVS
TAF
KLVS 202323Z 2100/2124 19010KT P6SM FEW200
     FM210200 VRB05KT P6SM SCT150
     FM210600 30008KT P6SM SCT070 BKN150
     FM211800 28012G20KT P6SM SCT200=

USA.gov is the U.S. government's official web portal to all federal, state and local government web resources and services.